X  Fermer Données météorologiques d'aviation de Metar     LIML Milano Linate Airport
Température
22°C Température
12°C Point de rosée
53% Humidité



Vitesse
5 KM/H
3 MPH
1 M/S
3 KTS



50°
NE
Conditions actuelles

Claire Claire
Pression 1012.92 (hPa) - 29.91 (inHg)
Visibilité 6.2 (mile) - 10 (km)
Aéroport
Code de l'aéroport LIML

Emplacement: Milano Linate Airport
Distance: 100 (km)

Metar:
LIML 050650Z 05003KT 360V100 CAVOK 22/12 Q1013 NOSIG

Temps: 05-08-2020 08:50 CEST